createdAt,value
2023-07-23T00:01:18.003Z,57.19
2023-07-23T00:03:44.233Z,56.78
2023-07-23T00:06:10.417Z,56.88
2023-07-23T00:08:36.575Z,57.21
2023-07-23T00:11:02.732Z,57.50
2023-07-23T00:13:28.911Z,56.34
2023-07-23T00:15:55.217Z,55.97
2023-07-23T00:18:21.509Z,57.11
2023-07-23T00:20:47.661Z,57.15
2023-07-23T00:23:13.825Z,57.15
2023-07-23T00:25:39.996Z,56.94
2023-07-23T00:28:06.170Z,56.70
2023-07-23T00:30:32.347Z,57.39
2023-07-23T00:32:58.537Z,56.97
2023-07-23T00:35:24.721Z,56.64
2023-07-23T00:37:50.925Z,56.21
2023-07-23T00:40:17.107Z,56.12
2023-07-23T00:42:43.261Z,56.07
2023-07-23T00:45:09.444Z,56.71
2023-07-23T00:47:35.611Z,57.38
2023-07-23T00:50:01.898Z,57.36
2023-07-23T00:52:28.066Z,56.74
2023-07-23T00:54:54.249Z,56.93
2023-07-23T00:57:20.404Z,57.71
2023-07-23T00:59:46.565Z,57.87
2023-07-23T01:02:12.738Z,58.15
2023-07-23T01:04:38.887Z,58.23
2023-07-23T01:07:05.057Z,58.11
2023-07-23T01:09:31.213Z,58.30
2023-07-23T01:11:57.383Z,58.64
2023-07-23T01:14:23.543Z,57.98
2023-07-23T01:16:49.710Z,57.84
2023-07-23T01:19:15.973Z,57.21
2023-07-23T01:21:42.234Z,57.38
2023-07-23T01:24:08.404Z,57.51
2023-07-23T01:26:34.563Z,57.53
2023-07-23T01:29:00.727Z,58.01
2023-07-23T01:31:27.173Z,56.70
2023-07-23T01:33:53.592Z,55.95
2023-07-23T01:36:19.740Z,56.74
2023-07-23T01:38:45.893Z,56.59
2023-07-23T01:41:12.083Z,57.12
2023-07-23T01:43:38.240Z,57.35
2023-07-23T01:46:04.406Z,57.64
2023-07-23T01:48:32.522Z,58.12
2023-07-23T01:50:58.902Z,58.53
2023-07-23T01:53:25.071Z,57.69
2023-07-23T01:55:51.225Z,58.51
2023-07-23T01:58:17.369Z,58.55
2023-07-23T02:00:43.575Z,58.46
2023-07-23T02:03:09.796Z,58.67
2023-07-23T02:05:35.989Z,58.87
2023-07-23T02:08:02.172Z,59.16
2023-07-23T02:10:28.339Z,58.92
2023-07-23T02:12:54.524Z,58.10
2023-07-23T02:15:20.665Z,58.39
2023-07-23T02:17:46.915Z,58.72
2023-07-23T02:20:13.172Z,58.50
2023-07-23T02:22:39.314Z,58.27
2023-07-23T02:25:05.464Z,57.25
2023-07-23T02:27:31.625Z,57.14
2023-07-23T02:29:57.775Z,58.29
2023-07-23T02:32:23.950Z,58.51
2023-07-23T02:34:50.118Z,58.08
2023-07-23T02:37:16.280Z,58.01
2023-07-23T02:39:42.437Z,57.99
2023-07-23T02:42:08.602Z,57.46
2023-07-23T02:44:34.807Z,57.90
2023-07-23T02:47:00.971Z,57.89
2023-07-23T02:49:27.147Z,58.27
2023-07-23T02:51:53.326Z,58.76
2023-07-23T02:54:19.488Z,59.65
2023-07-23T02:56:45.655Z,59.43
2023-07-23T02:59:11.805Z,59.16
2023-07-23T03:01:38.007Z,59.85
2023-07-23T03:04:04.207Z,59.39
2023-07-23T03:06:30.357Z,58.38
2023-07-23T03:08:56.505Z,57.34
2023-07-23T03:11:22.673Z,56.79
2023-07-23T03:13:48.852Z,58.36
2023-07-23T03:16:15.044Z,59.21
2023-07-23T03:18:41.250Z,59.41
2023-07-23T03:21:07.397Z,59.28
2023-07-23T03:23:33.556Z,58.92
2023-07-23T03:25:59.737Z,58.42
2023-07-23T03:28:25.900Z,57.55
2023-07-23T03:30:52.068Z,57.39
2023-07-23T03:33:18.257Z,57.54
2023-07-23T03:35:44.414Z,58.72
2023-07-23T03:38:10.569Z,58.35
2023-07-23T03:40:36.724Z,57.74
2023-07-23T03:43:02.883Z,56.90
2023-07-23T03:45:29.044Z,57.76
2023-07-23T03:47:55.267Z,58.42
2023-07-23T03:50:21.465Z,58.20
2023-07-23T03:52:47.640Z,56.83
2023-07-23T03:55:13.809Z,57.72
2023-07-23T03:57:39.980Z,58.46
2023-07-23T04:00:06.158Z,58.51
2023-07-23T04:02:32.345Z,58.47
2023-07-23T04:04:58.528Z,58.45
2023-07-23T04:07:24.695Z,57.85
2023-07-23T04:09:50.857Z,56.88
2023-07-23T04:12:17.010Z,57.55
2023-07-23T04:14:43.180Z,58.07
2023-07-23T04:17:09.350Z,58.02
2023-07-23T04:19:35.509Z,58.22
2023-07-23T04:22:01.693Z,57.68
2023-07-23T04:24:27.897Z,57.83
2023-07-23T04:26:54.119Z,58.03
2023-07-23T04:29:20.277Z,57.68
2023-07-23T04:31:46.494Z,58.36
2023-07-23T04:34:12.704Z,58.39
2023-07-23T04:36:38.857Z,58.71
2023-07-23T04:39:05.150Z,58.33
2023-07-23T04:41:31.538Z,57.27
2023-07-23T04:43:57.878Z,57.96
2023-07-23T04:46:24.060Z,58.81
2023-07-23T04:48:50.214Z,57.97
2023-07-23T04:51:16.396Z,59.17
2023-07-23T04:53:42.589Z,58.62
2023-07-23T04:56:08.765Z,58.44
2023-07-23T04:58:34.922Z,57.98
2023-07-23T05:01:01.132Z,57.22
2023-07-23T05:03:27.353Z,57.90
2023-07-23T05:05:53.566Z,56.51
2023-07-23T05:08:19.756Z,56.06
2023-07-23T05:10:45.930Z,55.35
2023-07-23T05:13:12.112Z,55.10
2023-07-23T05:15:38.284Z,56.46
2023-07-23T05:18:04.454Z,57.05
2023-07-23T05:20:30.618Z,56.39
2023-07-23T05:22:56.789Z,57.64
2023-07-23T05:25:22.952Z,57.11
2023-07-23T05:27:49.110Z,57.43
2023-07-23T05:30:15.287Z,57.68
2023-07-23T05:32:41.550Z,57.08
2023-07-23T05:35:07.747Z,57.04
2023-07-23T05:37:33.933Z,56.58
2023-07-23T05:40:00.106Z,56.22
2023-07-23T05:42:26.278Z,55.24
2023-07-23T05:44:52.432Z,55.52
2023-07-23T05:47:18.616Z,55.35
2023-07-23T05:49:44.786Z,56.14
2023-07-23T05:52:10.965Z,56.11
2023-07-23T05:54:37.146Z,55.84
2023-07-23T05:57:03.309Z,55.85
2023-07-23T05:59:29.462Z,55.47
2023-07-23T06:01:55.621Z,55.22
2023-07-23T06:04:21.798Z,55.42
2023-07-23T06:06:47.982Z,54.89
2023-07-23T06:09:14.155Z,54.63
2023-07-23T06:11:40.331Z,54.66
2023-07-23T06:14:06.532Z,55.38
2023-07-23T06:16:32.712Z,55.75
2023-07-23T06:18:58.875Z,56.68
2023-07-23T06:21:25.038Z,55.78
2023-07-23T06:23:51.187Z,55.46
2023-07-23T06:26:17.348Z,55.06
2023-07-23T06:28:43.534Z,54.36
2023-07-23T06:31:09.772Z,54.81
2023-07-23T06:33:35.967Z,55.12
2023-07-23T06:36:02.466Z,55.58
2023-07-23T06:38:28.629Z,54.77
2023-07-23T06:40:54.773Z,55.29
2023-07-23T06:43:20.980Z,56.09
2023-07-23T06:45:47.141Z,55.42
2023-07-23T06:48:13.344Z,54.82
2023-07-23T06:50:39.518Z,53.88
2023-07-23T06:53:05.699Z,52.79
2023-07-23T06:55:31.892Z,51.99
2023-07-23T06:57:58.052Z,51.80
2023-07-23T07:00:24.218Z,50.48
2023-07-23T07:02:50.426Z,50.59
2023-07-23T07:05:16.610Z,49.49
2023-07-23T07:07:42.772Z,48.46
2023-07-23T07:10:08.940Z,48.70
2023-07-23T07:12:35.101Z,47.38
2023-07-23T07:15:01.290Z,47.52
2023-07-23T07:17:27.534Z,46.31
2023-07-23T07:19:53.731Z,42.21
2023-07-23T07:22:19.906Z,42.38
2023-07-23T07:24:46.111Z,43.52
2023-07-23T07:27:12.284Z,41.32
2023-07-23T07:29:38.487Z,40.24
2023-07-23T07:32:04.683Z,40.06
2023-07-23T07:34:30.859Z,39.52
2023-07-23T07:36:57.039Z,39.69
2023-07-23T07:39:23.192Z,41.01
2023-07-23T07:41:49.359Z,39.41
2023-07-23T07:44:15.514Z,39.94
2023-07-23T07:46:41.680Z,40.25
2023-07-23T07:49:07.832Z,40.58
2023-07-23T07:51:34.001Z,39.34
2023-07-23T07:54:00.179Z,38.77
2023-07-23T07:56:26.343Z,37.88
2023-07-23T07:58:52.505Z,38.99
2023-07-23T08:01:18.677Z,39.44
2023-07-23T08:03:45.000Z,38.73
2023-07-23T08:06:11.262Z,39.49
2023-07-23T08:08:37.448Z,37.45
2023-07-23T08:11:03.612Z,37.66
2023-07-23T08:13:29.792Z,37.91
2023-07-23T08:15:56.410Z,37.58
2023-07-23T08:18:22.685Z,37.77
2023-07-23T08:20:48.880Z,35.80
2023-07-23T08:23:15.086Z,38.12
2023-07-23T08:25:41.249Z,37.82
2023-07-23T08:28:07.401Z,38.30
2023-07-23T08:30:33.582Z,35.79
2023-07-23T08:32:59.877Z,38.29
2023-07-23T08:35:26.144Z,34.19
2023-07-23T08:37:52.317Z,34.44
2023-07-23T08:40:19.918Z,37.80
2023-07-23T08:42:46.455Z,37.60
2023-07-23T08:45:12.622Z,36.09
2023-07-23T08:47:38.801Z,36.47
2023-07-23T08:50:05.054Z,34.33
2023-07-23T08:52:31.205Z,32.75
2023-07-23T08:54:57.368Z,34.99
2023-07-23T08:57:23.525Z,32.26
2023-07-23T08:59:49.734Z,32.10
2023-07-23T09:02:15.918Z,32.16
2023-07-23T09:04:42.176Z,31.10
2023-07-23T09:07:08.403Z,31.01
2023-07-23T09:09:34.566Z,30.69
2023-07-23T09:12:00.732Z,30.69
2023-07-23T09:14:26.882Z,26.83
2023-07-23T09:16:53.161Z,26.61
2023-07-23T09:19:19.373Z,27.16
2023-07-23T09:21:45.546Z,28.45
2023-07-23T09:24:11.759Z,26.08
2023-07-23T09:26:37.974Z,25.41
2023-07-23T09:29:04.143Z,25.02
2023-07-23T09:31:30.521Z,27.29
2023-07-23T09:33:56.948Z,26.74
2023-07-23T09:36:23.102Z,24.24
2023-07-23T09:38:49.282Z,26.10
2023-07-23T09:41:15.447Z,26.62
2023-07-23T09:43:41.644Z,23.77
2023-07-23T09:46:07.841Z,25.98
2023-07-23T09:48:34.000Z,26.63
2023-07-23T09:51:00.171Z,27.88
2023-07-23T09:53:26.324Z,28.68
2023-07-23T09:55:52.500Z,25.94
2023-07-23T09:58:18.671Z,25.17
2023-07-23T10:00:44.882Z,25.54
2023-07-23T10:03:11.131Z,25.23
2023-07-23T10:05:37.339Z,25.25
2023-07-23T10:08:03.508Z,24.84
2023-07-23T10:10:29.684Z,26.33
2023-07-23T10:12:55.843Z,25.26
2023-07-23T10:15:22.015Z,25.29
2023-07-23T10:17:48.261Z,25.70
2023-07-23T10:20:14.452Z,24.96
2023-07-23T10:22:40.641Z,25.35
2023-07-23T10:25:12.254Z,24.45
2023-07-23T10:27:47.658Z,23.91
2023-07-23T10:30:13.817Z,23.71
2023-07-23T10:32:40.067Z,24.84
2023-07-23T10:35:06.279Z,25.39
2023-07-23T10:37:32.446Z,25.13
2023-07-23T10:39:58.608Z,24.22
2023-07-23T10:42:24.773Z,23.62
2023-07-23T10:44:50.939Z,25.67
2023-07-23T10:47:17.090Z,24.70
2023-07-23T10:49:43.242Z,25.09
2023-07-23T10:52:09.409Z,23.37
2023-07-23T10:54:35.581Z,24.64
2023-07-23T10:57:01.793Z,22.99
2023-07-23T10:59:27.954Z,21.58
2023-07-23T11:01:54.163Z,22.17
2023-07-23T11:04:20.378Z,20.29
2023-07-23T11:06:46.527Z,20.44
2023-07-23T11:09:12.701Z,21.29
2023-07-23T11:11:38.879Z,22.84
2023-07-23T11:14:05.063Z,21.53
2023-07-23T11:16:31.280Z,22.52
2023-07-23T11:18:57.488Z,21.58
2023-07-23T11:21:23.639Z,21.26
2023-07-23T11:23:49.807Z,21.02
2023-07-23T11:26:15.988Z,20.26
2023-07-23T11:28:42.157Z,18.82
2023-07-23T11:31:08.405Z,20.09
2023-07-23T11:33:34.705Z,19.85
2023-07-23T11:36:01.009Z,21.12
2023-07-23T11:38:27.180Z,24.44
2023-07-23T11:40:53.489Z,22.75
2023-07-23T11:43:19.763Z,24.27
2023-07-23T11:45:45.976Z,23.26
2023-07-23T11:48:12.205Z,23.54
2023-07-23T11:50:38.349Z,23.05
2023-07-23T11:53:04.513Z,22.23
2023-07-23T11:55:30.662Z,22.99
2023-07-23T11:57:56.828Z,24.20
2023-07-23T12:00:22.985Z,23.08
2023-07-23T12:02:49.198Z,24.50
2023-07-23T12:05:15.367Z,22.78
2023-07-23T12:07:41.527Z,23.55
2023-07-23T12:10:07.684Z,22.47
2023-07-23T12:12:33.848Z,23.83
2023-07-23T12:15:00.005Z,24.05
2023-07-23T12:17:26.194Z,24.63
2023-07-23T12:19:52.366Z,21.96
2023-07-23T12:22:18.526Z,22.60
2023-07-23T12:24:44.736Z,24.84
2023-07-23T12:27:10.903Z,26.26
2023-07-23T12:29:37.098Z,28.27
2023-07-23T12:32:04.335Z,27.22
2023-07-23T12:34:30.490Z,26.37
2023-07-23T12:36:56.652Z,24.96
2023-07-23T12:39:22.825Z,27.12
2023-07-23T12:41:48.990Z,27.74
2023-07-23T12:44:15.150Z,28.32
2023-07-23T12:46:41.349Z,28.49
2023-07-23T12:49:07.518Z,28.87
2023-07-23T12:51:33.689Z,29.00
2023-07-23T12:53:59.875Z,29.45
2023-07-23T12:56:26.025Z,30.45
2023-07-23T12:58:52.198Z,27.85
2023-07-23T13:01:18.493Z,26.95
2023-07-23T13:03:44.732Z,28.76
2023-07-23T13:06:10.922Z,28.15
2023-07-23T13:08:37.186Z,27.14
2023-07-23T13:11:03.423Z,29.08
2023-07-23T13:13:29.603Z,26.58
2023-07-23T13:15:55.753Z,28.21
2023-07-23T13:18:21.912Z,26.10
2023-07-23T13:20:48.091Z,28.04
2023-07-23T13:23:14.271Z,26.85
2023-07-23T13:25:40.467Z,27.67
2023-07-23T13:28:06.636Z,26.60
2023-07-23T13:30:32.815Z,28.00
2023-07-23T13:32:59.021Z,27.56
2023-07-23T13:35:25.195Z,27.71
2023-07-23T13:37:51.359Z,28.35
2023-07-23T13:40:17.607Z,28.85
2023-07-23T13:42:43.756Z,28.96
2023-07-23T13:45:09.970Z,29.04
2023-07-23T13:47:36.156Z,29.25
2023-07-23T13:50:02.332Z,28.18
2023-07-23T13:52:28.507Z,29.72
2023-07-23T13:54:54.676Z,28.11
2023-07-23T13:57:20.868Z,27.33
2023-07-23T13:59:47.030Z,27.89
2023-07-23T14:02:13.227Z,28.02
2023-07-23T14:04:39.437Z,27.82
2023-07-23T14:07:05.609Z,28.63
2023-07-23T14:09:33.326Z,28.14
2023-07-23T14:11:59.507Z,28.31
2023-07-23T14:14:25.663Z,27.27
2023-07-23T14:16:51.875Z,28.13
2023-07-23T14:19:18.034Z,28.27
2023-07-23T14:21:44.199Z,27.60
2023-07-23T14:24:10.438Z,27.82
2023-07-23T14:26:36.618Z,27.80
2023-07-23T14:29:02.798Z,28.30
2023-07-23T14:31:29.380Z,28.49
2023-07-23T14:33:55.886Z,28.66
2023-07-23T14:36:22.041Z,27.82
2023-07-23T14:38:48.212Z,28.41
2023-07-23T14:41:14.380Z,27.65
2023-07-23T14:43:40.536Z,28.90
2023-07-23T14:46:06.758Z,28.11
2023-07-23T14:48:32.940Z,27.54
2023-07-23T14:50:59.096Z,28.61
2023-07-23T14:53:25.255Z,28.40
2023-07-23T14:55:51.438Z,27.58
2023-07-23T14:58:17.598Z,28.31
2023-07-23T15:00:43.756Z,28.51
2023-07-23T15:03:10.125Z,28.43
2023-07-23T15:05:36.385Z,28.79
2023-07-23T15:08:02.610Z,27.93
2023-07-23T15:10:28.808Z,27.05
2023-07-23T15:12:54.973Z,27.38
2023-07-23T15:15:21.125Z,27.77
2023-07-23T15:17:47.333Z,27.17
2023-07-23T15:20:13.513Z,26.90
2023-07-23T15:22:39.672Z,26.92
2023-07-23T15:25:05.845Z,25.81
2023-07-23T15:27:31.993Z,26.26
2023-07-23T15:29:58.170Z,26.19
2023-07-23T15:32:24.385Z,27.09
2023-07-23T15:34:50.567Z,26.75
2023-07-23T15:37:16.730Z,25.91
2023-07-23T15:39:42.892Z,26.33
2023-07-23T15:42:09.059Z,25.81
2023-07-23T15:44:35.234Z,26.10
2023-07-23T15:47:01.392Z,26.48
2023-07-23T15:49:27.557Z,27.01
2023-07-23T15:51:53.703Z,26.44
2023-07-23T15:54:19.880Z,26.79
2023-07-23T15:56:46.078Z,27.08
2023-07-23T15:59:12.254Z,26.32
2023-07-23T16:01:38.423Z,27.80
2023-07-23T16:04:04.587Z,27.04
2023-07-23T16:06:30.745Z,26.31
2023-07-23T16:08:56.937Z,25.76
2023-07-23T16:11:23.114Z,26.33
2023-07-23T16:13:49.288Z,26.25
2023-07-23T16:16:15.486Z,26.61
2023-07-23T16:18:41.648Z,27.08
2023-07-23T16:21:07.798Z,28.88
2023-07-23T16:23:33.962Z,29.86
2023-07-23T16:26:00.129Z,30.31
2023-07-23T16:28:26.311Z,28.10
2023-07-23T16:30:52.483Z,28.17
2023-07-23T16:33:18.676Z,28.12
2023-07-23T16:35:44.838Z,29.50
2023-07-23T16:38:10.983Z,27.20
2023-07-23T16:40:37.145Z,28.52
2023-07-23T16:43:03.328Z,28.31
2023-07-23T16:45:29.547Z,28.49
2023-07-23T16:47:55.795Z,28.73
2023-07-23T16:50:21.968Z,28.95
2023-07-23T16:52:48.147Z,28.75
2023-07-23T16:55:14.303Z,28.11
2023-07-23T16:57:40.458Z,28.94
2023-07-23T17:00:06.665Z,28.90
2023-07-23T17:02:32.940Z,29.73
2023-07-23T17:04:59.141Z,30.07
2023-07-23T17:07:25.321Z,30.02
2023-07-23T17:09:51.480Z,28.50
2023-07-23T17:12:17.641Z,29.21
2023-07-23T17:14:43.806Z,29.21
2023-07-23T17:17:10.074Z,30.38
2023-07-23T17:19:36.312Z,29.31
2023-07-23T17:22:02.478Z,29.36
2023-07-23T17:24:28.642Z,31.05
2023-07-23T17:26:54.870Z,30.92
2023-07-23T17:29:21.033Z,30.55
2023-07-23T17:31:47.202Z,30.97
2023-07-23T17:34:13.359Z,31.05
2023-07-23T17:36:39.524Z,31.11
2023-07-23T17:39:05.735Z,30.74
2023-07-23T17:41:31.889Z,31.63
2023-07-23T17:43:58.081Z,33.61
2023-07-23T17:46:24.265Z,34.26
2023-07-23T17:48:50.474Z,34.22
2023-07-23T17:51:16.656Z,34.25
2023-07-23T17:53:42.828Z,33.28
2023-07-23T17:56:09.014Z,35.45
2023-07-23T17:58:35.199Z,34.67
2023-07-23T18:01:03.662Z,34.21
2023-07-23T18:03:33.676Z,35.48
2023-07-23T18:05:59.929Z,32.96
2023-07-23T18:08:26.121Z,35.37
2023-07-23T18:10:52.307Z,35.25
2023-07-23T18:13:18.487Z,36.01
2023-07-23T18:15:44.655Z,35.13
2023-07-23T18:18:10.841Z,35.60
2023-07-23T18:20:37.035Z,33.77
2023-07-23T18:23:03.205Z,34.38
2023-07-23T18:25:29.392Z,35.35
2023-07-23T18:27:55.572Z,36.00
2023-07-23T18:30:21.756Z,36.21
2023-07-23T18:32:47.950Z,36.00
2023-07-23T18:35:14.181Z,37.24
2023-07-23T18:37:40.389Z,36.22
2023-07-23T18:40:06.563Z,36.34
2023-07-23T18:42:32.770Z,35.39
2023-07-23T18:44:58.970Z,36.78
2023-07-23T18:47:25.202Z,36.92
2023-07-23T18:49:51.480Z,35.39
2023-07-23T18:52:17.692Z,35.80
2023-07-23T18:54:43.851Z,38.11
2023-07-23T18:57:10.004Z,36.99
2023-07-23T18:59:36.170Z,37.01
2023-07-23T19:02:02.405Z,37.06
2023-07-23T19:04:28.587Z,37.79
2023-07-23T19:06:54.782Z,37.30
2023-07-23T19:09:20.939Z,36.74
2023-07-23T19:11:47.099Z,36.98
2023-07-23T19:14:13.249Z,37.76
2023-07-23T19:16:39.543Z,37.90
2023-07-23T19:19:05.777Z,38.05
2023-07-23T19:21:31.951Z,38.71
2023-07-23T19:23:58.179Z,37.96
2023-07-23T19:26:24.338Z,39.09
2023-07-23T19:28:50.497Z,38.60
2023-07-23T19:31:16.682Z,38.71
2023-07-23T19:33:42.874Z,39.42
2023-07-23T19:36:09.252Z,40.03
2023-07-23T19:38:35.429Z,39.88
2023-07-23T19:41:01.711Z,40.27
2023-07-23T19:43:27.921Z,40.15
2023-07-23T19:45:54.193Z,38.52
2023-07-23T19:48:20.379Z,38.81
2023-07-23T19:50:46.561Z,40.72
2023-07-23T19:53:12.731Z,40.27
2023-07-23T19:55:38.890Z,39.76
2023-07-23T19:58:05.083Z,39.57
2023-07-23T20:00:31.273Z,39.80
2023-07-23T20:02:57.541Z,40.37
2023-07-23T20:05:23.841Z,40.36
2023-07-23T20:07:50.034Z,40.17
2023-07-23T20:10:16.180Z,39.80
2023-07-23T20:12:42.370Z,40.38
2023-07-23T20:15:08.548Z,39.33
2023-07-23T20:17:34.736Z,40.96
2023-07-23T20:20:00.927Z,39.60
2023-07-23T20:22:27.143Z,39.29
2023-07-23T20:24:53.557Z,38.50
2023-07-23T20:27:19.900Z,40.60
2023-07-23T20:29:46.071Z,40.48
2023-07-23T20:32:12.237Z,40.22
2023-07-23T20:34:38.401Z,40.78
2023-07-23T20:37:04.630Z,40.09
2023-07-23T20:39:30.789Z,41.04
2023-07-23T20:41:56.973Z,41.83
2023-07-23T20:44:23.156Z,40.84
2023-07-23T20:46:49.365Z,40.89
2023-07-23T20:49:15.584Z,41.95
2023-07-23T20:51:41.773Z,41.61
2023-07-23T20:54:07.965Z,41.52
2023-07-23T20:56:34.122Z,41.59
2023-07-23T20:59:00.279Z,40.90
2023-07-23T21:01:26.456Z,42.01
2023-07-23T21:03:52.641Z,41.46
2023-07-23T21:06:18.829Z,42.05
2023-07-23T21:08:45.015Z,40.48
2023-07-23T21:11:11.225Z,40.40
2023-07-23T21:13:37.390Z,42.13
2023-07-23T21:16:03.551Z,42.24
2023-07-23T21:18:29.723Z,40.25
2023-07-23T21:20:55.880Z,42.19
2023-07-23T21:23:22.049Z,41.87
2023-07-23T21:25:48.235Z,41.98
2023-07-23T21:28:14.456Z,41.72
2023-07-23T21:30:40.666Z,42.56
2023-07-23T21:33:06.868Z,43.07
2023-07-23T21:35:33.021Z,41.72
2023-07-23T21:37:59.169Z,39.68
2023-07-23T21:40:25.326Z,42.07
2023-07-23T21:42:51.489Z,41.59
2023-07-23T21:45:17.638Z,42.21
2023-07-23T21:47:43.845Z,42.09
2023-07-23T21:50:10.060Z,41.63
2023-07-23T21:52:36.207Z,41.07
2023-07-23T21:55:02.412Z,40.65
2023-07-23T21:57:28.602Z,41.75
2023-07-23T21:59:54.749Z,41.00
2023-07-23T22:02:21.020Z,39.68
2023-07-23T22:04:47.312Z,40.80
2023-07-23T22:07:13.474Z,40.94
2023-07-23T22:09:39.642Z,40.89
2023-07-23T22:12:05.810Z,41.76
2023-07-23T22:14:31.975Z,41.36
2023-07-23T22:16:58.133Z,40.78
2023-07-23T22:19:24.296Z,41.83
2023-07-23T22:21:50.496Z,41.19
2023-07-23T22:24:16.697Z,42.29
2023-07-23T22:26:42.922Z,41.71
2023-07-23T22:29:09.221Z,40.94
2023-07-23T22:31:35.533Z,40.23
2023-07-23T22:34:01.705Z,41.72
2023-07-23T22:36:28.265Z,41.89
2023-07-23T22:38:54.718Z,42.07
2023-07-23T22:41:21.064Z,41.87
2023-07-23T22:43:53.425Z,40.24
2023-07-23T22:46:23.004Z,41.98
2023-07-23T22:48:51.261Z,42.07
2023-07-23T22:51:17.419Z,41.09
2023-07-23T22:53:43.595Z,41.08
2023-07-23T22:56:09.768Z,40.67
2023-07-23T22:58:35.940Z,40.40
2023-07-23T23:01:02.122Z,40.44
2023-07-23T23:03:28.396Z,40.35
2023-07-23T23:05:54.593Z,41.32
2023-07-23T23:08:20.749Z,40.37
2023-07-23T23:10:46.921Z,39.50
2023-07-23T23:13:13.094Z,40.96
2023-07-23T23:15:39.275Z,40.00
2023-07-23T23:18:05.483Z,38.34
2023-07-23T23:20:31.682Z,41.43
2023-07-23T23:22:57.863Z,41.16
2023-07-23T23:25:24.048Z,40.74
2023-07-23T23:27:50.223Z,41.83
2023-07-23T23:30:16.387Z,41.64
2023-07-23T23:32:42.588Z,42.23
2023-07-23T23:35:08.817Z,42.28
2023-07-23T23:37:34.985Z,42.15
2023-07-23T23:40:01.161Z,43.48
2023-07-23T23:42:27.309Z,41.65
2023-07-23T23:44:53.488Z,42.09
2023-07-23T23:47:19.659Z,41.46
2023-07-23T23:49:45.829Z,41.03
2023-07-23T23:52:11.979Z,42.70
2023-07-23T23:54:38.150Z,42.65
2023-07-23T23:57:04.308Z,43.27
2023-07-23T23:59:30.467Z,42.25
